Time;durP1;ratioP1;P1;durP2;ratioP2;P2;SDS_P1;SDS_P2;PMS_P1;PMS_P2;Temp;Humidity;BMP_temperature;BMP_pressure;BME280_temperature;BME280_humidity;BME280_pressure;Samples;Min_cycle;Max_cycle;Signal;HPM_P1;HPM_P2
2022/11/09 00:01:24;;;;;;;12.90;3.10;;;;;;;;;;5114553;28;20028;-62
2022/11/09 00:03:58;;;;;;;11.95;2.90;;;;;;;;;;5113882;28;20387;-62
2022/11/09 00:06:24;;;;;;;8.68;2.28;;;;;;;;;;5114120;28;20026;-62
2022/11/09 00:08:51;;;;;;;8.23;2.47;;;;;;;;;;5114218;28;20410;-62
2022/11/09 00:11:18;;;;;;;9.25;2.90;;;;;;;;;;5113839;28;20031;-62
2022/11/09 00:13:45;;;;;;;7.03;2.63;;;;;;;;;;5114495;28;20020;-62
2022/11/09 00:16:13;;;;;;;9.05;2.97;;;;;;;;;;5114496;28;20034;-64
2022/11/09 00:18:40;;;;;;;7.93;2.65;;;;;;;;;;5113769;28;20491;-62
2022/11/09 00:21:07;;;;;;;8.68;3.03;;;;;;;;;;5113846;28;20015;-62
2022/11/09 00:23:34;;;;;;;6.25;2.55;;;;;;;;;;5113680;28;20072;-63
2022/11/09 00:26:04;;;;;;;9.48;2.70;;;;;;;;;;5113811;28;20031;-62
2022/11/09 00:28:30;;;;;;;19.58;2.95;;;;;;;;;;5114411;28;20032;-63
2022/11/09 00:31:04;;;;;;;6.50;2.42;;;;;;;;;;5113702;28;20054;-63
2022/11/09 00:33:30;;;;;;;5.85;2.28;;;;;;;;;;5113252;28;20016;-63
2022/11/09 00:35:57;;;;;;;7.82;2.80;;;;;;;;;;5113376;28;20047;-63
2022/11/09 00:38:23;;;;;;;8.02;2.55;;;;;;;;;;5113295;28;20500;-63
2022/11/09 00:40:50;;;;;;;5.57;2.60;;;;;;;;;;5113575;28;20095;-63
2022/11/09 00:43:17;;;;;;;6.07;2.45;;;;;;;;;;5113623;28;20395;-63
2022/11/09 00:45:43;;;;;;;9.52;2.75;;;;;;;;;;5113316;28;20026;-63
2022/11/09 00:48:10;;;;;;;6.70;2.45;;;;;;;;;;5113194;28;20407;-63
2022/11/09 00:50:36;;;;;;;6.78;2.60;;;;;;;;;;5114033;28;20027;-63
2022/11/09 00:53:02;;;;;;;9.82;2.90;;;;;;;;;;5112478;28;20035;-62
2022/11/09 00:55:29;;;;;;;8.75;2.72;;;;;;;;;;5113314;28;20012;-63
2022/11/09 00:57:55;;;;;;;9.75;3.40;;;;;;;;;;5113381;28;20383;-63
2022/11/09 01:00:22;;;;;;;8.40;2.65;;;;;;;;;;5112934;28;20027;-63
2022/11/09 01:02:52;;;;;;;10.57;2.30;;;;;;;;;;5112761;28;20380;-62
2022/11/09 01:05:19;;;;;;;8.48;2.80;;;;;;;;;;5113225;28;20032;-63
2022/11/09 01:07:45;;;;;;;11.40;2.72;;;;;;;;;;5112819;28;20039;-63
2022/11/09 01:10:11;;;;;;;5.63;2.53;;;;;;;;;;5112735;28;20030;-63
2022/11/09 01:12:38;;;;;;;7.07;2.50;;;;;;;;;;5113179;28;20028;-63
2022/11/09 01:15:04;;;;;;;8.07;2.70;;;;;;;;;;5113180;28;20020;-63
2022/11/09 01:17:31;;;;;;;8.27;2.53;;;;;;;;;;5111300;28;20042;-64
2022/11/09 01:19:57;;;;;;;8.95;2.40;;;;;;;;;;5113356;28;20012;-63
2022/11/09 01:22:23;;;;;;;6.68;2.45;;;;;;;;;;5113035;28;20028;-64
2022/11/09 01:24:49;;;;;;;10.38;2.90;;;;;;;;;;5112717;28;20012;-62
2022/11/09 01:27:16;;;;;;;8.73;2.45;;;;;;;;;;5112693;28;20511;-64
2022/11/09 01:29:42;;;;;;;6.82;3.13;;;;;;;;;;5111659;28;20012;-65
2022/11/09 01:32:09;;;;;;;10.50;3.15;;;;;;;;;;5112438;28;20028;-64
2022/11/09 01:34:35;;;;;;;8.10;2.22;;;;;;;;;;5112927;28;20400;-65
2022/11/09 01:37:02;;;;;;;7.03;2.78;;;;;;;;;;5112402;28;20043;-64
2022/11/09 01:39:28;;;;;;;10.88;2.72;;;;;;;;;;5113183;28;20028;-64
2022/11/09 01:41:54;;;;;;;8.82;2.63;;;;;;;;;;5112778;28;20395;-64
2022/11/09 01:44:21;;;;;;;7.30;2.55;;;;;;;;;;5112425;28;20015;-65
2022/11/09 01:46:50;;;;;;;11.45;2.80;;;;;;;;;;5112818;28;20027;-64
2022/11/09 01:49:36;;;;;;;12.10;2.80;;;;;;;;;;5112844;28;20024;-64
2022/11/09 01:52:07;;;;;;;6.70;2.63;;;;;;;;;;5113001;28;20403;-65
2022/11/09 01:54:38;;;;;;;11.13;2.78;;;;;;;;;;5111073;28;20024;-65
2022/11/09 01:57:08;;;;;;;6.60;2.28;;;;;;;;;;5111208;28;20024;-65
2022/11/09 01:59:36;;;;;;;9.00;2.58;;;;;;;;;;5112211;28;20031;-65
2022/11/09 02:02:03;;;;;;;11.13;2.90;;;;;;;;;;5112708;28;20024;-65
2022/11/09 02:04:34;;;;;;;6.95;2.63;;;;;;;;;;5112850;28;20023;-64
2022/11/09 02:07:01;;;;;;;12.85;2.97;;;;;;;;;;5112626;28;20016;-64
2022/11/09 02:10:03;;;;;;;6.57;2.50;;;;;;;;;;5111157;28;20027;-64
2022/11/09 02:12:31;;;;;;;7.75;2.88;;;;;;;;;;5029720;28;20037;-65
2022/11/09 02:14:59;;;;;;;8.68;3.30;;;;;;;;;;5029564;28;20036;-64
2022/11/09 02:17:26;;;;;;;6.10;2.65;;;;;;;;;;5029687;28;20045;-64
2022/11/09 02:19:52;;;;;;;7.85;2.97;;;;;;;;;;5015889;28;20036;-65
2022/11/09 02:22:18;;;;;;;11.98;2.72;;;;;;;;;;5033494;28;20030;-65
2022/11/09 02:24:45;;;;;;;9.68;2.75;;;;;;;;;;5033544;28;20414;-65
2022/11/09 02:27:11;;;;;;;7.55;2.53;;;;;;;;;;5033118;28;20030;-64
2022/11/09 02:29:42;;;;;;;6.82;2.50;;;;;;;;;;5032737;28;20477;-65
2022/11/09 02:32:08;;;;;;;;;;;;;;;;;;5033868;28;20025;-64
2022/11/09 02:34:34;;;;;;;14.32;2.80;;;;;;;;;;5033445;28;19908;-65
2022/11/09 02:37:01;;;;;;;9.77;2.53;;;;;;;;;;5032690;28;20052;-65
2022/11/09 02:39:28;;;;;;;6.45;2.83;;;;;;;;;;5032917;28;20607;-64
2022/11/09 02:42:06;;;;;;;14.38;2.60;;;;;;;;;;5016537;28;20474;-64
2022/11/09 02:44:34;;;;;;;10.60;2.85;;;;;;;;;;5032297;28;20022;-65
2022/11/09 02:47:01;;;;;;;8.07;2.80;;;;;;;;;;5079207;28;20042;-65
2022/11/09 02:49:27;;;;;;;11.88;3.25;;;;;;;;;;5095460;28;20030;-65
2022/11/09 02:51:53;;;;;;;7.15;2.78;;;;;;;;;;5095547;28;20038;-65
2022/11/09 02:54:20;;;;;;;12.73;2.80;;;;;;;;;;5095425;28;20016;-64
2022/11/09 02:56:46;;;;;;;14.45;3.20;;;;;;;;;;5094870;28;20028;-63
2022/11/09 02:59:12;;;;;;;8.13;3.13;;;;;;;;;;5093789;28;20468;-65
2022/11/09 03:01:39;;;;;;;10.95;2.75;;;;;;;;;;5077310;28;20090;-64
2022/11/09 03:04:05;;;;;;;10.63;3.30;;;;;;;;;;5095337;28;20012;-64
2022/11/09 03:06:34;;;;;;;11.80;2.90;;;;;;;;;;5095004;28;20036;-64
2022/11/09 03:09:01;;;;;;;11.63;3.55;;;;;;;;;;5095133;28;20076;-64
2022/11/09 03:11:27;;;;;;;7.15;2.97;;;;;;;;;;5114534;28;20494;-64
2022/11/09 03:13:54;;;;;;;9.82;2.70;;;;;;;;;;5115356;28;20019;-64
2022/11/09 03:16:20;;;;;;;11.45;3.83;;;;;;;;;;5115443;28;20042;-65
2022/11/09 03:18:47;;;;;;;9.93;3.03;;;;;;;;;;5115221;28;20027;-64
2022/11/09 03:21:13;;;;;;;8.60;2.92;;;;;;;;;;5115283;28;20026;-65
2022/11/09 03:23:39;;;;;;;8.60;2.97;;;;;;;;;;5115027;28;20038;-64
2022/11/09 03:26:05;;;;;;;11.30;2.78;;;;;;;;;;5115121;28;20023;-65
2022/11/09 03:28:32;;;;;;;10.85;2.97;;;;;;;;;;5114944;28;20045;-65
2022/11/09 03:30:58;;;;;;;7.72;3.15;;;;;;;;;;5114554;28;20023;-65
2022/11/09 03:33:24;;;;;;;7.40;2.63;;;;;;;;;;5114887;28;20028;-65
2022/11/09 03:35:51;;;;;;;11.93;3.30;;;;;;;;;;5114619;28;20012;-64
2022/11/09 03:38:17;;;;;;;11.27;3.40;;;;;;;;;;5114789;28;20043;-65
2022/11/09 03:40:44;;;;;;;7.28;2.88;;;;;;;;;;5114965;28;20074;-65
2022/11/09 03:43:10;;;;;;;8.25;2.50;;;;;;;;;;5114935;28;20033;-64
2022/11/09 03:45:36;;;;;;;13.95;3.00;;;;;;;;;;5114696;28;20024;-64
2022/11/09 03:48:03;;;;;;;9.90;2.72;;;;;;;;;;5114880;28;20083;-65
2022/11/09 03:50:30;;;;;;;16.38;3.17;;;;;;;;;;5114736;28;20506;-63
2022/11/09 03:52:57;;;;;;;12.77;3.03;;;;;;;;;;5114799;28;20023;-63
2022/11/09 03:55:23;;;;;;;10.60;2.92;;;;;;;;;;5114467;28;20036;-63
2022/11/09 03:57:50;;;;;;;8.20;2.65;;;;;;;;;;5114382;28;20032;-63
2022/11/09 04:00:17;;;;;;;7.53;2.70;;;;;;;;;;5114065;28;20020;-63
2022/11/09 04:02:44;;;;;;;6.65;2.50;;;;;;;;;;5114155;28;20019;-63
2022/11/09 04:05:11;;;;;;;9.95;2.90;;;;;;;;;;5113025;28;20027;-63
2022/11/09 04:07:37;;;;;;;11.93;2.65;;;;;;;;;;5114419;28;20028;-63
2022/11/09 04:10:05;;;;;;;11.48;2.70;;;;;;;;;;5113593;28;20022;-63
2022/11/09 04:12:31;;;;;;;13.55;3.08;;;;;;;;;;5113880;28;20031;-63
2022/11/09 04:14:57;;;;;;;10.43;3.17;;;;;;;;;;5114063;28;20473;-64
2022/11/09 04:17:23;;;;;;;7.63;2.90;;;;;;;;;;5114467;28;20030;-63
2022/11/09 04:19:50;;;;;;;10.05;2.67;;;;;;;;;;5113749;28;20020;-63
2022/11/09 04:22:16;;;;;;;10.63;2.85;;;;;;;;;;5113787;28;20399;-62
2022/11/09 04:24:42;;;;;;;10.02;3.08;;;;;;;;;;5113760;28;20027;-63
2022/11/09 04:27:09;;;;;;;9.02;3.10;;;;;;;;;;5113713;28;20049;-63
2022/11/09 04:29:35;;;;;;;11.02;2.80;;;;;;;;;;5113772;28;20004;-63
2022/11/09 04:32:01;;;;;;;12.30;3.10;;;;;;;;;;5113698;28;20023;-63
2022/11/09 04:34:28;;;;;;;9.57;3.00;;;;;;;;;;5113439;28;20494;-63
2022/11/09 04:36:54;;;;;;;12.20;3.15;;;;;;;;;;5113303;28;20044;-64
2022/11/09 04:39:20;;;;;;;10.48;3.35;;;;;;;;;;5113347;28;20036;-64
2022/11/09 04:41:46;;;;;;;8.90;2.97;;;;;;;;;;5112607;28;20031;-65
2022/11/09 04:44:13;;;;;;;8.65;2.88;;;;;;;;;;5113610;28;20084;-65
2022/11/09 04:46:39;;;;;;;8.00;3.03;;;;;;;;;;5113235;28;20096;-64
2022/11/09 04:49:05;;;;;;;7.00;2.85;;;;;;;;;;5113267;28;20030;-64
2022/11/09 04:51:32;;;;;;;7.53;3.10;;;;;;;;;;5113140;28;20421;-64
2022/11/09 04:53:58;;;;;;;8.30;2.72;;;;;;;;;;5111815;28;20033;-62
2022/11/09 04:56:24;;;;;;;13.10;2.67;;;;;;;;;;5113177;28;20024;-62
2022/11/09 04:58:51;;;;;;;8.50;2.95;;;;;;;;;;5113055;28;20040;-62
2022/11/09 05:01:17;;;;;;;9.27;2.78;;;;;;;;;;5113154;28;20031;-62
2022/11/09 05:03:43;;;;;;;9.02;3.08;;;;;;;;;;5113013;28;20026;-63
2022/11/09 05:08:55;;;;;;;8.30;3.20;;;;;;;;;;5112579;28;20020;-62
2022/11/09 05:11:22;;;;;;;6.93;2.88;;;;;;;;;;5112759;28;20677;-62
2022/11/09 05:13:50;;;;;;;11.45;2.97;;;;;;;;;;5112747;28;20498;-62
2022/11/09 05:16:16;;;;;;;9.52;3.00;;;;;;;;;;5112756;28;20374;-62
2022/11/09 05:18:43;;;;;;;9.63;3.35;;;;;;;;;;5112846;28;20023;-62
2022/11/09 05:21:10;;;;;;;8.80;2.92;;;;;;;;;;5111565;28;20027;-63
2022/11/09 05:26:21;;;;;;;11.75;3.47;;;;;;;;;;5112604;28;20028;-63
2022/11/09 05:28:48;;;;;;;11.90;3.70;;;;;;;;;;5112960;28;20046;-63
2022/11/09 05:31:14;;;;;;;7.15;3.03;;;;;;;;;;5112925;28;20027;-63
2022/11/09 05:33:40;;;;;;;9.85;3.25;;;;;;;;;;5112613;28;20019;-62
2022/11/09 05:36:07;;;;;;;11.68;3.38;;;;;;;;;;5112135;28;20041;-62
2022/11/09 05:38:33;;;;;;;6.70;2.88;;;;;;;;;;5112017;28;20058;-62
2022/11/09 05:40:59;;;;;;;6.45;2.83;;;;;;;;;;5111092;28;20518;-62
2022/11/09 05:43:25;;;;;;;8.63;3.33;;;;;;;;;;5112805;28;20027;-62
2022/11/09 05:45:52;;;;;;;8.75;2.80;;;;;;;;;;5096534;28;20020;-62
2022/11/09 05:48:18;;;;;;;8.35;2.97;;;;;;;;;;5092141;28;20038;-62
2022/11/09 05:50:44;;;;;;;8.77;3.17;;;;;;;;;;5092041;28;20020;-62
2022/11/09 05:53:11;;;;;;;14.13;3.92;;;;;;;;;;5093878;28;20036;-62
2022/11/09 05:55:38;;;;;;;9.68;3.30;;;;;;;;;;5095187;28;20024;-62
2022/11/09 05:58:04;;;;;;;8.70;3.00;;;;;;;;;;5096266;28;20028;-62
2022/11/09 06:00:31;;;;;;;9.20;3.20;;;;;;;;;;5095978;28;20034;-62
2022/11/09 06:03:04;;;;;;;10.98;3.60;;;;;;;;;;5096041;28;20024;-62
2022/11/09 06:05:32;;;;;;;10.35;3.42;;;;;;;;;;5095634;28;20028;-61
2022/11/09 06:08:02;;;;;;;9.45;2.58;;;;;;;;;;5096012;28;20491;-61
2022/11/09 06:10:28;;;;;;;9.82;3.15;;;;;;;;;;5096129;28;20027;-61
2022/11/09 06:12:54;;;;;;;8.35;3.13;;;;;;;;;;5095961;28;20020;-60
2022/11/09 06:15:21;;;;;;;12.60;3.60;;;;;;;;;;5095820;28;20495;-61
2022/11/09 06:17:51;;;;;;;8.68;3.35;;;;;;;;;;5095587;28;20028;-62
2022/11/09 06:20:17;;;;;;;16.63;2.90;;;;;;;;;;5095308;28;20484;-60
2022/11/09 06:22:44;;;;;;;10.43;3.10;;;;;;;;;;5095975;28;20093;-61
2022/11/09 06:25:10;;;;;;;10.38;3.50;;;;;;;;;;5095548;28;20023;-61
2022/11/09 06:27:36;;;;;;;13.85;3.53;;;;;;;;;;5095551;28;20035;-61
2022/11/09 06:30:03;;;;;;;8.55;3.00;;;;;;;;;;5094296;28;20388;-60
2022/11/09 06:32:29;;;;;;;8.88;2.95;;;;;;;;;;5095424;28;20532;-61
2022/11/09 06:34:55;;;;;;;10.32;3.58;;;;;;;;;;5095277;28;20042;-60
2022/11/09 06:37:21;;;;;;;12.00;3.13;;;;;;;;;;5111591;28;20104;-60
2022/11/09 06:39:48;;;;;;;17.35;3.90;;;;;;;;;;5115701;28;20024;-61
2022/11/09 06:42:14;;;;;;;7.90;3.55;;;;;;;;;;5115932;28;20076;-61
2022/11/09 06:44:41;;;;;;;10.25;3.90;;;;;;;;;;5115609;28;20026;-60
2022/11/09 06:47:07;;;;;;;12.77;4.28;;;;;;;;;;5115570;28;20042;-61
2022/11/09 06:49:33;;;;;;;13.43;3.63;;;;;;;;;;5115293;28;20031;-61
2022/11/09 06:52:00;;;;;;;11.60;4.60;;;;;;;;;;5115651;28;20023;-62
2022/11/09 06:54:26;;;;;;;12.32;6.15;;;;;;;;;;5115430;28;20396;-62
2022/11/09 06:56:54;;;;;;;12.43;6.53;;;;;;;;;;5115550;28;20024;-62
2022/11/09 06:59:20;;;;;;;15.13;5.68;;;;;;;;;;5115810;28;20024;-63
2022/11/09 07:01:46;;;;;;;8.43;3.40;;;;;;;;;;5115227;28;20023;-62
2022/11/09 07:04:14;;;;;;;10.55;3.95;;;;;;;;;;5114179;28;20482;-62
2022/11/09 07:06:41;;;;;;;8.45;4.10;;;;;;;;;;5113944;28;20032;-62
2022/11/09 07:09:07;;;;;;;13.32;3.53;;;;;;;;;;5115127;28;20028;-62
2022/11/09 07:11:34;;;;;;;11.18;4.10;;;;;;;;;;5115051;28;20100;-63
2022/11/09 07:14:01;;;;;;;13.10;4.47;;;;;;;;;;5115328;28;20027;-62
2022/11/09 07:16:28;;;;;;;13.55;4.65;;;;;;;;;;5105909;28;20024;-62
2022/11/09 07:18:54;;;;;;;12.57;4.03;;;;;;;;;;5102466;28;20042;-62
2022/11/09 07:21:21;;;;;;;13.63;3.10;;;;;;;;;;5105791;28;20042;-62
2022/11/09 07:23:48;;;;;;;10.80;2.80;;;;;;;;;;5094101;28;20024;-62
2022/11/09 07:26:15;;;;;;;15.43;3.60;;;;;;;;;;5109448;28;20383;-62
2022/11/09 07:28:41;;;;;;;10.10;3.53;;;;;;;;;;5110329;28;20024;-60
2022/11/09 07:31:08;;;;;;;13.30;4.10;;;;;;;;;;5109715;28;20038;-62
2022/11/09 07:33:34;;;;;;;11.52;4.05;;;;;;;;;;5110786;28;20053;-61
2022/11/09 07:36:02;;;;;;;11.57;4.10;;;;;;;;;;5098755;28;20049;-62
2022/11/09 07:38:28;;;;;;;8.90;3.30;;;;;;;;;;5113907;28;20043;-61
2022/11/09 07:40:58;;;;;;;7.32;2.70;;;;;;;;;;5098294;28;20499;-61
2022/11/09 07:43:25;;;;;;;5.43;2.97;;;;;;;;;;5107283;28;20029;-60
2022/11/09 07:45:51;;;;;;;5.60;2.90;;;;;;;;;;5101949;28;20294;-61
2022/11/09 07:48:18;;;;;;;9.23;2.58;;;;;;;;;;5107073;28;20450;-61
2022/11/09 07:50:44;;;;;;;8.50;3.30;;;;;;;;;;5112288;28;20032;-61
2022/11/09 07:53:12;;;;;;;6.82;3.03;;;;;;;;;;5113033;28;20020;-61
2022/11/09 07:55:39;;;;;;;7.15;2.65;;;;;;;;;;5101685;27;20016;-62
2022/11/09 07:58:07;;;;;;;9.80;2.80;;;;;;;;;;5107316;28;20043;-60
2022/11/09 08:00:34;;;;;;;9.18;3.38;;;;;;;;;;5095636;28;20030;-61
2022/11/09 08:03:01;;;;;;;10.25;2.80;;;;;;;;;;5110360;28;20080;-61
2022/11/09 08:05:28;;;;;;;10.38;3.30;;;;;;;;;;5102130;28;20032;-62
2022/11/09 08:07:55;;;;;;;6.60;3.08;;;;;;;;;;5105077;28;20504;-62
2022/11/09 08:10:22;;;;;;;9.15;3.53;;;;;;;;;;5108270;28;20026;-62
2022/11/09 08:12:59;;;;;;;7.72;3.45;;;;;;;;;;5100680;28;20076;-62
2022/11/09 08:15:26;;;;;;;63.10;4.50;;;;;;;;;;5109390;28;20024;-62
2022/11/09 08:17:52;;;;;;;35.25;4.30;;;;;;;;;;5098028;28;20046;-62
2022/11/09 08:20:19;;;;;;;18.65;4.07;;;;;;;;;;5099016;28;20024;-62
2022/11/09 08:22:45;;;;;;;12.07;4.88;;;;;;;;;;5101434;28;20071;-62
2022/11/09 08:25:12;;;;;;;13.02;3.95;;;;;;;;;;5099382;28;20088;-62
2022/11/09 08:27:39;;;;;;;14.50;4.75;;;;;;;;;;5112385;28;20518;-61
2022/11/09 08:30:06;;;;;;;10.65;3.67;;;;;;;;;;5112454;28;20031;-61
2022/11/09 08:32:32;;;;;;;12.52;4.22;;;;;;;;;;5112193;28;20042;-62
2022/11/09 08:34:59;;;;;;;49.28;6.07;;;;;;;;;;5112490;28;20041;-62
2022/11/09 08:37:25;;;;;;;16.85;4.25;;;;;;;;;;5104314;28;20036;-62
2022/11/09 08:39:51;;;;;;;8.93;3.38;;;;;;;;;;5101706;28;20561;-62
2022/11/09 08:42:18;;;;;;;12.98;3.88;;;;;;;;;;5111717;28;20022;-62
2022/11/09 08:44:44;;;;;;;9.30;3.47;;;;;;;;;;5104968;28;20662;-65
2022/11/09 08:47:10;;;;;;;41.13;5.82;;;;;;;;;;5090344;28;20028;-61
2022/11/09 08:49:37;;;;;;;12.50;3.47;;;;;;;;;;5091366;28;20032;-61
2022/11/09 08:52:03;;;;;;;10.68;2.83;;;;;;;;;;5090653;28;20036;-62
2022/11/09 08:54:29;;;;;;;12.50;3.55;;;;;;;;;;5090924;28;20032;-62
2022/11/09 08:56:56;;;;;;;11.15;3.90;;;;;;;;;;5101830;28;20506;-63
2022/11/09 08:59:22;;;;;;;10.68;4.28;;;;;;;;;;5111327;28;20030;-62
2022/11/09 09:01:49;;;;;;;12.48;3.67;;;;;;;;;;5110074;28;20735;-62
2022/11/09 09:04:15;;;;;;;9.18;3.65;;;;;;;;;;5111495;28;20050;-62
2022/11/09 09:06:42;;;;;;;12.15;4.10;;;;;;;;;;5110595;28;20603;-62
2022/11/09 09:09:08;;;;;;;15.38;3.72;;;;;;;;;;5102284;28;20517;-62
2022/11/09 09:11:34;;;;;;;8.35;3.53;;;;;;;;;;5108748;28;20028;-60
2022/11/09 09:14:01;;;;;;;9.15;3.20;;;;;;;;;;5108446;28;20036;-62
2022/11/09 09:16:27;;;;;;;9.32;3.50;;;;;;;;;;5111086;28;20023;-62
2022/11/09 09:18:54;;;;;;;7.55;2.92;;;;;;;;;;5109274;28;20032;-63
2022/11/09 09:21:20;;;;;;;8.48;2.72;;;;;;;;;;5110673;28;20035;-62
2022/11/09 09:23:48;;;;;;;7.75;2.80;;;;;;;;;;5110809;28;20510;-62
2022/11/09 09:26:14;;;;;;;14.43;3.42;;;;;;;;;;5110957;28;20477;-62
2022/11/09 09:28:41;;;;;;;9.30;2.75;;;;;;;;;;5089885;28;20493;-62
2022/11/09 09:31:07;;;;;;;9.15;3.08;;;;;;;;;;5090348;28;20034;-61
2022/11/09 09:33:34;;;;;;;13.27;4.15;;;;;;;;;;5090307;28;20028;-61
2022/11/09 09:36:00;;;;;;;10.20;3.00;;;;;;;;;;5095865;28;20519;-61
2022/11/09 09:38:28;;;;;;;11.73;3.30;;;;;;;;;;5110264;28;20519;-62
2022/11/09 09:41:03;;;;;;;10.55;3.05;;;;;;;;;;5105894;28;20030;-62
2022/11/09 09:43:39;;;;;;;9.93;2.80;;;;;;;;;;5108216;28;20027;-62
2022/11/09 09:46:12;;;;;;;11.63;3.03;;;;;;;;;;5102065;28;20481;-63
2022/11/09 09:48:40;;;;;;;8.77;3.20;;;;;;;;;;5093271;28;20030;-61
2022/11/09 09:51:11;;;;;;;12.32;3.00;;;;;;;;;;5089620;28;20032;-61
2022/11/09 09:53:41;;;;;;;11.77;3.10;;;;;;;;;;5104469;28;20079;-61
2022/11/09 09:56:08;;;;;;;;;;;;;;;;;;5110064;28;20023;-61
2022/11/09 09:58:35;;;;;;;9.65;2.85;;;;;;;;;;5109850;28;19915;-61
2022/11/09 10:01:22;;;;;;;9.77;2.75;;;;;;;;;;5110106;28;20016;-62
2022/11/09 10:03:50;;;;;;;10.88;2.80;;;;;;;;;;5103323;28;20024;-61
2022/11/09 10:06:36;;;;;;;10.35;3.03;;;;;;;;;;5110616;28;20480;-62
2022/11/09 10:09:08;;;;;;;11.27;2.65;;;;;;;;;;5109723;28;20018;-62
2022/11/09 10:11:55;;;;;;;9.02;2.70;;;;;;;;;;5109669;28;20407;-62
2022/11/09 10:14:28;;;;;;;9.73;3.22;;;;;;;;;;5110319;28;20019;-62
2022/11/09 10:16:57;;;;;;;9.70;2.97;;;;;;;;;;5109752;28;20422;-62
2022/11/09 10:19:27;;;;;;;12.55;3.15;;;;;;;;;;5110335;28;20417;-61
2022/11/09 10:22:07;;;;;;;12.77;3.00;;;;;;;;;;5098981;28;20016;-61
2022/11/09 10:24:46;;;;;;;11.10;2.80;;;;;;;;;;5092382;28;20028;-61
2022/11/09 10:27:26;;;;;;;10.77;2.83;;;;;;;;;;5109461;28;20034;-62
2022/11/09 10:29:53;;;;;;;8.50;2.10;;;;;;;;;;5108918;28;20060;-62
2022/11/09 10:32:21;;;;;;;6.43;2.33;;;;;;;;;;5109203;28;20027;-61
2022/11/09 10:35:06;;;;;;;8.02;2.40;;;;;;;;;;5109315;28;20465;-62
2022/11/09 10:37:32;;;;;;;7.07;2.10;;;;;;;;;;5107262;28;20050;-62
2022/11/09 10:40:05;;;;;;;9.80;2.28;;;;;;;;;;5110205;28;20031;-62
2022/11/09 10:42:31;;;;;;;9.40;2.10;;;;;;;;;;5105519;28;20028;-62
2022/11/09 10:44:58;;;;;;;6.20;1.90;;;;;;;;;;5109573;28;20027;-61
2022/11/09 10:47:25;;;;;;;6.80;1.95;;;;;;;;;;5113374;28;20077;-62
2022/11/09 10:50:06;;;;;;;9.48;2.00;;;;;;;;;;5112994;28;20383;-62
2022/11/09 10:52:38;;;;;;;9.45;2.13;;;;;;;;;;5112053;28;20026;-62
2022/11/09 10:55:22;;;;;;;6.07;1.98;;;;;;;;;;5110285;28;20026;-62
2022/11/09 10:57:57;;;;;;;9.70;2.25;;;;;;;;;;5111363;28;20040;-62
2022/11/09 11:00:24;;;;;;;8.18;1.98;;;;;;;;;;5108902;28;20030;-62
2022/11/09 11:02:51;;;;;;;10.98;1.95;;;;;;;;;;5112933;28;20056;-62
2022/11/09 11:05:17;;;;;;;4.72;1.92;;;;;;;;;;5107077;28;20023;-62
2022/11/09 11:07:45;;;;;;;4.90;2.08;;;;;;;;;;5110458;28;20016;-61
2022/11/09 11:10:14;;;;;;;6.95;2.45;;;;;;;;;;5112691;28;20038;-62
2022/11/09 11:13:01;;;;;;;4.55;2.17;;;;;;;;;;5112267;28;20089;-61
2022/11/09 11:15:41;;;;;;;10.57;1.95;;;;;;;;;;5100775;28;20032;-62
2022/11/09 11:18:16;;;;;;;8.48;2.28;;;;;;;;;;5111556;28;20405;-61
2022/11/09 11:20:42;;;;;;;6.18;2.45;;;;;;;;;;5112423;28;20032;-61
2022/11/09 11:23:09;;;;;;;5.13;1.88;;;;;;;;;;5112967;28;20033;-61
2022/11/09 11:25:40;;;;;;;6.70;2.00;;;;;;;;;;5112326;28;20495;-61
2022/11/09 11:28:19;;;;;;;7.65;2.15;;;;;;;;;;5113273;28;20033;-62
2022/11/09 11:30:45;;;;;;;9.45;2.08;;;;;;;;;;5113160;28;20033;-62
2022/11/09 11:33:17;;;;;;;6.70;2.45;;;;;;;;;;5112764;28;20023;-64
2022/11/09 11:35:49;;;;;;;14.45;2.28;;;;;;;;;;5112986;28;20369;-61
2022/11/09 11:38:27;;;;;;;9.55;1.92;;;;;;;;;;5112632;28;20515;-65
2022/11/09 11:41:09;;;;;;;5.75;1.67;;;;;;;;;;5112463;28;20580;-65
2022/11/09 11:43:41;;;;;;;8.10;1.88;;;;;;;;;;5112831;28;20034;-65
2022/11/09 11:46:19;;;;;;;10.50;2.15;;;;;;;;;;5112745;28;20030;-67
2022/11/09 11:49:01;;;;;;;8.68;1.92;;;;;;;;;;5112537;28;20395;-65
2022/11/09 11:51:35;;;;;;;7.60;2.17;;;;;;;;;;5111819;28;20033;-64
2022/11/09 11:54:04;;;;;;;6.88;1.70;;;;;;;;;;5112080;28;20022;-62
2022/11/09 11:56:30;;;;;;;10.60;2.40;;;;;;;;;;5112743;28;20485;-62
2022/11/09 11:59:15;;;;;;;11.63;2.05;;;;;;;;;;5112269;28;20048;-62
2022/11/09 12:01:50;;;;;;;6.20;1.90;;;;;;;;;;5106924;28;20514;-63
2022/11/09 12:04:45;;;;;;;6.93;1.77;;;;;;;;;;5102289;28;20036;-63
2022/11/09 12:07:18;;;;;;;5.05;1.67;;;;;;;;;;5091872;28;20032;-63
2022/11/09 12:09:56;;;;;;;5.53;2.00;;;;;;;;;;5112028;28;20027;-63
2022/11/09 12:12:22;;;;;;;7.10;2.05;;;;;;;;;;5095469;28;20032;-61
2022/11/09 12:14:54;;;;;;;4.95;1.73;;;;;;;;;;5091062;28;20020;-61
2022/11/09 12:17:23;;;;;;;5.50;1.83;;;;;;;;;;5094175;28;20028;-62
2022/11/09 12:20:02;;;;;;;6.85;2.05;;;;;;;;;;5111554;28;20031;-62
2022/11/09 12:22:28;;;;;;;6.30;1.65;;;;;;;;;;5108619;28;20032;-62
2022/11/09 12:25:02;;;;;;;5.20;1.67;;;;;;;;;;5111976;28;20020;-62
2022/11/09 12:27:34;;;;;;;10.38;1.90;;;;;;;;;;5111456;28;20071;-62
2022/11/09 12:30:00;;;;;;;9.23;2.38;;;;;;;;;;5111949;28;20028;-63
2022/11/09 12:32:41;;;;;;;5.20;1.80;;;;;;;;;;5110393;28;20032;-63
2022/11/09 12:35:07;;;;;;;;;;;;;;;;;;5111967;28;20027;-62
2022/11/09 12:37:36;;;;;;;7.28;1.95;;;;;;;;;;5111334;28;19924;-63
2022/11/09 12:40:13;;;;;;;4.65;2.00;;;;;;;;;;5110602;28;20040;-62
2022/11/09 12:43:00;;;;;;;8.45;2.20;;;;;;;;;;5111539;28;20020;-61
2022/11/09 12:45:29;;;;;;;6.05;1.70;;;;;;;;;;5111458;28;20023;-63
2022/11/09 12:47:58;;;;;;;6.25;1.50;;;;;;;;;;5111145;28;20026;-63
2022/11/09 12:50:25;;;;;;;5.35;1.60;;;;;;;;;;5111740;28;20019;-63
2022/11/09 12:52:52;;;;;;;5.40;1.95;;;;;;;;;;5111028;28;20054;-63
2022/11/09 12:55:22;;;;;;;5.45;1.65;;;;;;;;;;5109289;28;20037;-63
2022/11/09 12:57:48;;;;;;;5.70;1.85;;;;;;;;;;5110908;28;20027;-63
2022/11/09 13:00:32;;;;;;;6.50;1.73;;;;;;;;;;5110818;28;20027;-63
2022/11/09 13:03:00;;;;;;;5.22;2.33;;;;;;;;;;5110910;28;20031;-63
2022/11/09 13:05:36;;;;;;;6.22;1.85;;;;;;;;;;5110647;28;20038;-62
2022/11/09 13:08:05;;;;;;;4.22;1.63;;;;;;;;;;5110725;28;20020;-63
2022/11/09 13:10:35;;;;;;;10.80;2.25;;;;;;;;;;5110480;28;20019;-63
2022/11/09 13:13:21;;;;;;;5.38;1.52;;;;;;;;;;5111311;28;20068;-62
2022/11/09 13:16:20;;;;;;;8.23;2.08;;;;;;;;;;5111199;28;20038;-62
2022/11/09 13:18:50;;;;;;;6.55;2.75;;;;;;;;;;5025118;28;20617;-62
2022/11/09 13:21:22;;;;;;;14.30;3.30;;;;;;;;;;5026779;28;20055;-62
2022/11/09 13:23:49;;;;;;;9.52;2.58;;;;;;;;;;5014102;28;20025;-62
2022/11/09 13:26:41;;;;;;;11.57;2.40;;;;;;;;;;5008387;28;20056;-62
2022/11/09 13:29:09;;;;;;;22.25;16.02;;;;;;;;;;5007814;28;20044;-62
2022/11/09 13:31:54;;;;;;;7.90;3.00;;;;;;;;;;5007698;28;20038;-62
2022/11/09 13:34:40;;;;;;;6.30;1.85;;;;;;;;;;5008270;28;20041;-62
2022/11/09 13:37:25;;;;;;;7.38;2.63;;;;;;;;;;5007905;28;20048;-62
2022/11/09 13:39:52;;;;;;;6.10;2.10;;;;;;;;;;5008068;28;20044;-62
2022/11/09 13:42:25;;;;;;;10.85;2.30;;;;;;;;;;5007205;28;20040;-63
2022/11/09 13:44:51;;;;;;;5.18;1.90;;;;;;;;;;5008106;28;20040;-62
2022/11/09 13:47:27;;;;;;;8.30;2.85;;;;;;;;;;5008418;28;20042;-63
2022/11/09 13:49:53;;;;;;;18.73;10.05;;;;;;;;;;5007934;28;20030;-62
2022/11/09 13:52:38;;;;;;;9.65;6.78;;;;;;;;;;5007666;28;20087;-62
2022/11/09 13:55:12;;;;;;;7.68;2.92;;;;;;;;;;5076586;28;20036;-62
2022/11/09 13:57:39;;;;;;;7.60;3.20;;;;;;;;;;5106358;28;20031;-62
2022/11/09 14:00:06;;;;;;;7.25;2.58;;;;;;;;;;5110614;28;20488;-62
2022/11/09 14:02:32;;;;;;;7.30;2.78;;;;;;;;;;5110753;28;20028;-62
2022/11/09 14:05:00;;;;;;;7.20;3.53;;;;;;;;;;5110365;28;20079;-62
2022/11/09 14:07:34;;;;;;;8.70;3.33;;;;;;;;;;5110959;28;20038;-62
2022/11/09 14:10:21;;;;;;;9.55;3.67;;;;;;;;;;5110575;28;20034;-61
2022/11/09 14:13:06;;;;;;;5.65;3.22;;;;;;;;;;5111151;28;20032;-62
2022/11/09 14:15:42;;;;;;;15.23;7.53;;;;;;;;;;5114384;28;20030;-61
2022/11/09 14:18:15;;;;;;;7.40;3.85;;;;;;;;;;5112263;28;20041;-61
2022/11/09 14:20:47;;;;;;;13.23;6.32;;;;;;;;;;5114181;28;20012;-61
2022/11/09 14:23:21;;;;;;;14.18;5.65;;;;;;;;;;5114790;28;20034;-63
2022/11/09 14:25:48;;;;;;;9.55;4.00;;;;;;;;;;5114489;28;20024;-62
2022/11/09 14:28:26;;;;;;;11.52;4.07;;;;;;;;;;5114229;28;20027;-62
2022/11/09 14:30:52;;;;;;;12.70;3.80;;;;;;;;;;5113603;28;20399;-62
2022/11/09 14:33:24;;;;;;;6.93;3.40;;;;;;;;;;5113988;28;20618;-61
2022/11/09 14:35:51;;;;;;;7.07;3.25;;;;;;;;;;5113769;28;20020;-62
2022/11/09 14:38:22;;;;;;;8.40;3.03;;;;;;;;;;5112760;28;20084;-61
2022/11/09 14:40:48;;;;;;;;;;;;;;;;;;5114410;28;20468;-61
2022/11/09 14:43:27;;;;;;;10.75;4.93;;;;;;;;;;5113666;28;20421;-62
2022/11/09 14:46:01;;;;;;;18.48;7.30;;;;;;;;;;5098294;28;20020;-62
2022/11/09 14:48:28;;;;;;;22.02;8.00;;;;;;;;;;5093179;28;20030;-62
2022/11/09 14:50:55;;;;;;;29.13;10.95;;;;;;;;;;5094107;28;20024;-62
2022/11/09 14:53:25;;;;;;;28.92;11.30;;;;;;;;;;5093491;28;20042;-62
2022/11/09 14:55:53;;;;;;;24.50;9.70;;;;;;;;;;5094517;28;20565;-62